createdAt,value
2023-02-18T00:00:28.977Z,100506.63
2023-02-18T00:01:07.915Z,100510.19
2023-02-18T00:01:46.805Z,100509.38
2023-02-18T00:02:26.725Z,100511.56
2023-02-18T00:03:06.471Z,100520.84
2023-02-18T00:03:44.741Z,100515.38
2023-02-18T00:04:24.219Z,100515.66
2023-02-18T00:05:03.641Z,100514.00
2023-02-18T00:05:42.737Z,100512.09
2023-02-18T00:06:22.559Z,100512.38
2023-02-18T00:07:02.515Z,100514.81
2023-02-18T00:07:42.329Z,100506.63
2023-02-18T00:08:22.304Z,100502.56
2023-02-18T00:09:02.487Z,100505.00
2023-02-18T00:09:42.395Z,100511.00
2023-02-18T00:10:21.099Z,100503.91
2023-02-18T00:10:59.886Z,100505.81
2023-02-18T00:11:39.484Z,100507.72
2023-02-18T00:12:20.476Z,100510.19
2023-02-18T00:12:59.962Z,100505.53
2023-02-18T00:13:39.789Z,100508.84
2023-02-18T00:14:19.300Z,100513.47
2023-02-18T00:14:58.667Z,100508.84
2023-02-18T00:15:37.672Z,100505.28
2023-02-18T00:16:17.095Z,100517.03
2023-02-18T00:16:56.507Z,100506.66
2023-02-18T00:17:35.929Z,100510.47
2023-02-18T00:18:15.768Z,100514.28
2023-02-18T00:18:55.052Z,100517.84
2023-02-18T00:19:33.916Z,100510.75
2023-02-18T00:20:12.569Z,100515.94
2023-02-18T00:20:51.478Z,100517.03
2023-02-18T00:21:31.735Z,100514.28
2023-02-18T00:22:11.360Z,100514.56
2023-02-18T00:22:52.424Z,100512.09
2023-02-18T00:23:31.571Z,100513.47
2023-02-18T00:24:11.572Z,100508.84
2023-02-18T00:24:51.267Z,100515.94
2023-02-18T00:25:30.321Z,100508.56
2023-02-18T00:26:09.880Z,100518.94
2023-02-18T00:26:49.251Z,100511.56
2023-02-18T00:27:28.619Z,100517.84
2023-02-18T00:28:08.466Z,100518.66
2023-02-18T00:28:48.175Z,100511.00
2023-02-18T00:29:27.160Z,100520.56
2023-02-18T00:30:09.391Z,100513.19
2023-02-18T00:30:48.069Z,100505.00
2023-02-18T00:31:26.392Z,100510.47
2023-02-18T00:32:06.162Z,100512.38
2023-02-18T00:32:46.009Z,100522.19
2023-02-18T00:33:24.160Z,100507.47
2023-02-18T00:34:04.350Z,100508.84
2023-02-18T00:34:43.429Z,100508.84
2023-02-18T00:35:22.835Z,100515.94
2023-02-18T00:36:02.078Z,100512.09
2023-02-18T00:36:40.772Z,100508.84
2023-02-18T00:37:19.853Z,100509.66
2023-02-18T00:37:59.052Z,100510.47
2023-02-18T00:38:38.690Z,100514.00
2023-02-18T00:39:18.010Z,100497.91
2023-02-18T00:39:56.778Z,100505.00
2023-02-18T00:40:35.265Z,100505.53
2023-02-18T00:41:14.713Z,100509.38
2023-02-18T00:41:52.777Z,100506.63
2023-02-18T00:42:30.441Z,100496.81
2023-02-18T00:43:09.252Z,100494.91
2023-02-18T00:43:48.389Z,100502.00
2023-02-18T00:44:27.653Z,100496.81
2023-02-18T00:45:06.732Z,100497.09
2023-02-18T00:45:45.878Z,100498.44
2023-02-18T00:46:25.111Z,100495.19
2023-02-18T00:47:03.629Z,100497.91
2023-02-18T00:47:43.632Z,100496.28
2023-02-18T00:48:22.599Z,100496.03
2023-02-18T00:49:01.657Z,100484.28
2023-02-18T00:49:39.766Z,100489.72
2023-02-18T00:50:22.123Z,100478.81
2023-02-18T00:50:59.093Z,100482.06
2023-02-18T00:51:38.060Z,100488.34
2023-02-18T00:52:17.622Z,100477.72
2023-02-18T00:52:57.022Z,100483.16
2023-02-18T00:53:36.718Z,100482.34
2023-02-18T00:54:15.773Z,100480.72
2023-02-18T00:54:54.833Z,100478.81
2023-02-18T00:55:34.186Z,100474.16
2023-02-18T00:56:15.124Z,100483.16
2023-02-18T00:56:54.765Z,100477.72
2023-02-18T00:57:35.326Z,100473.34
2023-02-18T00:58:14.103Z,100481.81
2023-02-18T00:58:54.071Z,100481.53
2023-02-18T00:59:32.861Z,100473.34
2023-02-18T01:00:12.652Z,100482.34
2023-02-18T01:00:50.512Z,100468.97
2023-02-18T01:01:29.228Z,100472.50
2023-02-18T01:02:09.068Z,100479.88
2023-02-18T01:02:47.987Z,100483.16
2023-02-18T01:03:27.561Z,100478.78
2023-02-18T01:04:07.201Z,100486.44
2023-02-18T01:04:46.366Z,100483.16
2023-02-18T01:05:25.852Z,100482.06
2023-02-18T01:06:05.672Z,100486.97
2023-02-18T01:06:44.786Z,100485.63
2023-02-18T01:07:24.785Z,100475.00
2023-02-18T01:08:04.126Z,100480.69
2023-02-18T01:08:44.691Z,100476.34
2023-02-18T01:09:25.197Z,100476.34
2023-02-18T01:10:04.329Z,100478.25
2023-02-18T01:10:43.497Z,100473.88
2023-02-18T01:11:21.793Z,100474.72
2023-02-18T01:11:59.998Z,100469.78
2023-02-18T01:12:39.389Z,100473.34
2023-02-18T01:13:19.576Z,100473.34
2023-02-18T01:13:57.998Z,100465.69
2023-02-18T01:14:38.037Z,100467.63
2023-02-18T01:15:17.196Z,100464.59
2023-02-18T01:15:56.237Z,100472.78
2023-02-18T01:16:35.208Z,100471.16
2023-02-18T01:17:13.307Z,100467.63
2023-02-18T01:17:52.710Z,100480.44
2023-02-18T01:18:31.716Z,100466.81
2023-02-18T01:19:10.465Z,100482.34
2023-02-18T01:19:50.088Z,100467.63
2023-02-18T01:20:28.955Z,100467.63
2023-02-18T01:21:07.885Z,100477.44
2023-02-18T01:21:46.327Z,100479.06
2023-02-18T01:22:26.196Z,100475.53
2023-02-18T01:23:05.389Z,100470.06
2023-02-18T01:23:45.350Z,100474.16
2023-02-18T01:24:24.320Z,100476.59
2023-02-18T01:25:04.370Z,100478.78
2023-02-18T01:25:43.870Z,100475.81
2023-02-18T01:26:23.026Z,100477.72
2023-02-18T01:27:02.241Z,100470.06
2023-02-18T01:27:40.725Z,100477.72
2023-02-18T01:28:20.536Z,100474.72
2023-02-18T01:29:01.294Z,100474.44
2023-02-18T01:29:41.272Z,100475.00
2023-02-18T01:30:21.912Z,100467.06
2023-02-18T01:31:02.053Z,100473.34
2023-02-18T01:31:41.390Z,100474.16
2023-02-18T01:32:21.702Z,100472.22
2023-02-18T01:33:00.072Z,100466.25
2023-02-18T01:33:39.218Z,100468.16
2023-02-18T01:34:18.095Z,100464.59
2023-02-18T01:34:56.874Z,100472.50
2023-02-18T01:35:36.422Z,100468.16
2023-02-18T01:36:15.478Z,100465.41
2023-02-18T01:36:55.109Z,100471.69
2023-02-18T01:37:33.431Z,100480.97
2023-02-18T01:38:13.203Z,100470.06
2023-02-18T01:38:52.594Z,100465.69
2023-02-18T01:39:31.828Z,100469.78
2023-02-18T01:40:11.536Z,100461.84
2023-02-18T01:40:51.700Z,100467.31
2023-02-18T01:41:31.934Z,100470.31
2023-02-18T01:42:11.285Z,100457.78
2023-02-18T01:42:49.986Z,100468.41
2023-02-18T01:43:30.062Z,100463.22
2023-02-18T01:44:09.459Z,100472.50
2023-02-18T01:44:48.279Z,100464.84
2023-02-18T01:45:30.373Z,100461.84
2023-02-18T01:46:10.114Z,100463.47
2023-02-18T01:46:48.725Z,100465.41
2023-02-18T01:47:27.700Z,100460.22
2023-02-18T01:48:06.266Z,100456.41
2023-02-18T01:48:45.979Z,100453.94
2023-02-18T01:49:26.164Z,100453.38
2023-02-18T01:50:05.637Z,100452.53
2023-02-18T01:50:44.378Z,100456.41
2023-02-18T01:51:23.120Z,100452.28
2023-02-18T01:52:03.060Z,100452.56
2023-02-18T01:52:42.080Z,100446.00
2023-02-18T01:53:21.339Z,100453.38
2023-02-18T01:54:00.225Z,100449.53
2023-02-18T01:54:39.236Z,100449.00
2023-02-18T01:55:18.841Z,100450.63
2023-02-18T01:55:58.292Z,100447.88
2023-02-18T01:56:38.102Z,100449.81
2023-02-18T01:57:17.353Z,100453.06
2023-02-18T01:57:56.089Z,100446.53
2023-02-18T01:58:33.509Z,100452.53
2023-02-18T01:59:12.243Z,100446.81
2023-02-18T01:59:50.824Z,100444.81
2023-02-18T02:00:29.056Z,100453.00
2023-02-18T02:01:07.811Z,100452.44
2023-02-18T02:01:48.011Z,100450.28
2023-02-18T02:02:27.050Z,100450.28
2023-02-18T02:03:05.912Z,100447.88
2023-02-18T02:03:43.903Z,100452.50
2023-02-18T02:04:23.297Z,100457.97
2023-02-18T02:05:02.563Z,100450.06
2023-02-18T02:05:41.296Z,100455.25
2023-02-18T02:06:23.138Z,100449.00
2023-02-18T02:07:01.296Z,100447.09
2023-02-18T02:07:39.606Z,100453.34
2023-02-18T02:08:18.352Z,100450.91
2023-02-18T02:08:58.963Z,100450.09
2023-02-18T02:09:38.808Z,100445.19
2023-02-18T02:10:18.244Z,100445.19
2023-02-18T02:10:56.095Z,100446.00
2023-02-18T02:11:34.475Z,100448.22
2023-02-18T02:12:13.313Z,100446.28
2023-02-18T02:12:52.185Z,100451.75
2023-02-18T02:13:30.809Z,100442.47
2023-02-18T02:14:09.640Z,100457.22
2023-02-18T02:14:48.439Z,100455.28
2023-02-18T02:15:27.525Z,100452.00
2023-02-18T02:16:07.190Z,100448.75
2023-02-18T02:16:45.133Z,100450.13
2023-02-18T02:17:24.495Z,100449.03
2023-02-18T02:18:03.180Z,100449.28
2023-02-18T02:18:42.558Z,100453.91
2023-02-18T02:19:21.161Z,100452.53
2023-02-18T02:20:00.642Z,100450.38
2023-02-18T02:20:39.450Z,100445.47
2023-02-18T02:21:18.225Z,100447.38
2023-02-18T02:21:56.786Z,100450.13
2023-02-18T02:22:36.202Z,100455.84
2023-02-18T02:23:15.064Z,100448.75
2023-02-18T02:23:54.679Z,100449.56
2023-02-18T02:24:34.157Z,100452.28
2023-02-18T02:25:13.125Z,100446.81
2023-02-18T02:25:52.476Z,100438.34
2023-02-18T02:26:31.813Z,100443.81
2023-02-18T02:27:09.980Z,100446.53
2023-02-18T02:27:49.715Z,100440.00
2023-02-18T02:28:29.358Z,100452.53
2023-02-18T02:29:09.070Z,100430.16
2023-02-18T02:29:48.650Z,100440.56
2023-02-18T02:30:29.157Z,100435.63
2023-02-18T02:31:07.845Z,100436.19
2023-02-18T02:31:45.875Z,100437.81
2023-02-18T02:32:24.724Z,100437.81
2023-02-18T02:33:04.161Z,100437.00
2023-02-18T02:33:42.875Z,100438.91
2023-02-18T02:34:21.566Z,100429.09
2023-02-18T02:35:00.168Z,100427.72
2023-02-18T02:35:38.499Z,100430.16
2023-02-18T02:36:18.075Z,100430.16
2023-02-18T02:36:57.085Z,100429.06
2023-02-18T02:37:35.760Z,100425.28
2023-02-18T02:38:15.122Z,100419.00
2023-02-18T02:38:54.371Z,100418.75
2023-02-18T02:39:33.541Z,100419.56
2023-02-18T02:40:13.316Z,100416.28
2023-02-18T02:40:53.727Z,100419.28
2023-02-18T02:41:33.045Z,100413.28
2023-02-18T02:42:11.908Z,100415.72
2023-02-18T02:42:51.015Z,100416.84
2023-02-18T02:43:29.846Z,100416.00
2023-02-18T02:44:09.339Z,100406.72
2023-02-18T02:44:48.429Z,100419.28
2023-02-18T02:45:27.866Z,100410.28
2023-02-18T02:46:07.960Z,100411.38
2023-02-18T02:46:47.897Z,100406.44
2023-02-18T02:47:26.409Z,100408.38
2023-02-18T02:48:05.449Z,100408.38
2023-02-18T02:48:44.769Z,100401.81
2023-02-18T02:49:24.082Z,100403.44
2023-02-18T02:50:03.804Z,100401.81
2023-02-18T02:50:43.371Z,100414.63
2023-02-18T02:51:22.594Z,100406.19
2023-02-18T02:52:02.491Z,100403.19
2023-02-18T02:52:41.123Z,100396.09
2023-02-18T02:53:18.919Z,100405.63
2023-02-18T02:53:56.906Z,100396.91
2023-02-18T02:54:36.032Z,100391.44
2023-02-18T02:55:15.270Z,100396.63
2023-02-18T02:55:55.080Z,100403.19
2023-02-18T02:56:34.043Z,100398.00
2023-02-18T02:57:12.800Z,100402.38
2023-02-18T02:57:52.389Z,100400.75
2023-02-18T02:58:30.892Z,100394.47
2023-02-18T02:59:09.994Z,100407.53
2023-02-18T02:59:51.135Z,100397.19
2023-02-18T03:00:30.406Z,100403.47
2023-02-18T03:01:09.365Z,100398.00
2023-02-18T03:01:48.655Z,100396.09
2023-02-18T03:02:27.866Z,100395.53
2023-02-18T03:03:06.374Z,100399.63
2023-02-18T03:03:45.021Z,100400.75
2023-02-18T03:04:24.597Z,100399.91
2023-02-18T03:05:03.664Z,100399.63
2023-02-18T03:05:44.461Z,100396.91
2023-02-18T03:06:24.181Z,100399.63
2023-02-18T03:07:03.758Z,100399.63
2023-02-18T03:07:42.976Z,100392.00
2023-02-18T03:08:22.768Z,100394.19
2023-02-18T03:09:01.195Z,100391.69
2023-02-18T03:09:40.710Z,100393.59
2023-02-18T03:10:19.738Z,100383.78
2023-02-18T03:11:00.406Z,100399.34
2023-02-18T03:11:40.212Z,100384.91
2023-02-18T03:12:20.436Z,100386.00
2023-02-18T03:12:59.676Z,100388.16
2023-02-18T03:13:38.759Z,100381.34
2023-02-18T03:14:17.679Z,100382.16
2023-02-18T03:14:58.320Z,100377.25
2023-02-18T03:15:38.101Z,100375.59
2023-02-18T03:16:17.551Z,100365.81
2023-02-18T03:16:56.765Z,100368.00
2023-02-18T03:17:35.852Z,100370.44
2023-02-18T03:18:16.048Z,100366.88
2023-02-18T03:18:55.977Z,100369.06
2023-02-18T03:19:34.739Z,100366.59
2023-02-18T03:20:14.492Z,100363.88
2023-02-18T03:20:54.286Z,100356.50
2023-02-18T03:21:33.459Z,100363.34
2023-02-18T03:22:12.339Z,100364.16
2023-02-18T03:22:52.401Z,100356.50
2023-02-18T03:23:31.037Z,100349.13
2023-02-18T03:24:09.153Z,100356.78
2023-02-18T03:24:48.147Z,100357.88
2023-02-18T03:25:27.230Z,100352.44
2023-02-18T03:26:07.100Z,100338.25
2023-02-18T03:26:46.509Z,100346.44
2023-02-18T03:27:25.762Z,100346.44
2023-02-18T03:28:04.610Z,100336.06
2023-02-18T03:28:45.252Z,100339.31
2023-02-18T03:29:23.319Z,100339.31
2023-02-18T03:30:02.050Z,100340.69
2023-02-18T03:30:41.634Z,100338.78
2023-02-18T03:31:21.397Z,100337.97
2023-02-18T03:32:01.802Z,100330.88
2023-02-18T03:32:41.351Z,100328.69
2023-02-18T03:33:20.983Z,100333.59
2023-02-18T03:34:00.872Z,100334.69
2023-02-18T03:34:41.219Z,100337.16
2023-02-18T03:35:20.668Z,100336.34
2023-02-18T03:35:59.781Z,100345.06
2023-02-18T03:36:39.417Z,100331.41
2023-02-18T03:37:18.865Z,100328.69
2023-02-18T03:37:58.398Z,100331.41
2023-02-18T03:38:38.340Z,100328.97
2023-02-18T03:39:18.693Z,100327.06
2023-02-18T03:39:57.752Z,100321.59
2023-02-18T03:40:36.811Z,100318.56
2023-02-18T03:41:16.495Z,100324.31
2023-02-18T03:41:56.119Z,100323.22
2023-02-18T03:42:35.705Z,100325.66
2023-02-18T03:43:15.240Z,100321.88
2023-02-18T03:43:54.937Z,100320.50
2023-02-18T03:44:34.791Z,100319.09
2023-02-18T03:45:13.229Z,100331.41
2023-02-18T03:45:51.967Z,100319.91
2023-02-18T03:46:31.152Z,100317.75
2023-02-18T03:47:10.320Z,100315.31
2023-02-18T03:47:49.715Z,100318.03
2023-02-18T03:48:28.986Z,100317.19
2023-02-18T03:49:07.266Z,100313.94
2023-02-18T03:49:44.463Z,100316.13
2023-02-18T03:50:22.752Z,100314.22
2023-02-18T03:51:00.709Z,100319.69
2023-02-18T03:51:38.634Z,100324.31
2023-02-18T03:52:17.838Z,100315.31
2023-02-18T03:52:56.421Z,100316.13
2023-02-18T03:53:35.382Z,100319.69
2023-02-18T03:54:13.124Z,100314.50
2023-02-18T03:54:52.821Z,100319.16
2023-02-18T03:55:30.562Z,100311.78
2023-02-18T03:56:09.225Z,100306.31
2023-02-18T03:56:47.023Z,100315.31
2023-02-18T03:57:25.197Z,100312.03
2023-02-18T03:58:04.878Z,100317.22
2023-02-18T03:58:43.086Z,100314.50
2023-02-18T03:59:21.279Z,100311.78
2023-02-18T04:00:00.658Z,100310.69
2023-02-18T04:00:39.448Z,100305.22
2023-02-18T04:01:17.793Z,100307.94
2023-02-18T04:01:56.553Z,100307.13
2023-02-18T04:02:36.015Z,100310.13
2023-02-18T04:03:15.200Z,100299.22
2023-02-18T04:03:54.093Z,100306.59
2023-02-18T04:04:34.081Z,100310.97
2023-02-18T04:05:13.344Z,100300.03
2023-02-18T04:05:51.698Z,100303.59
2023-02-18T04:06:30.539Z,100307.41
2023-02-18T04:07:10.186Z,100300.56
2023-02-18T04:07:50.592Z,100297.03
2023-02-18T04:08:29.934Z,100298.41
2023-02-18T04:09:09.499Z,100305.22
2023-02-18T04:09:47.786Z,100291.56
2023-02-18T04:10:27.208Z,100295.13
2023-02-18T04:11:05.918Z,100291.28
2023-02-18T04:11:44.429Z,100287.75
2023-02-18T04:12:24.368Z,100297.03
2023-02-18T04:13:02.707Z,100291.56
2023-02-18T04:13:41.177Z,100296.22
2023-02-18T04:14:19.503Z,100293.19
2023-02-18T04:14:59.406Z,100295.13
2023-02-18T04:15:37.942Z,100287.22
2023-02-18T04:16:16.100Z,100289.94
2023-02-18T04:16:54.851Z,100284.72
2023-02-18T04:17:33.418Z,100289.38
2023-02-18T04:18:12.454Z,100279.56
2023-02-18T04:18:51.495Z,100280.38
2023-02-18T04:19:29.849Z,100283.66
2023-02-18T04:20:08.903Z,100291.56
2023-02-18T04:20:48.601Z,100282.84
2023-02-18T04:21:27.205Z,100291.84
2023-02-18T04:22:05.699Z,100281.75
2023-02-18T04:22:44.660Z,100285.00
2023-02-18T04:23:24.001Z,100287.75
2023-02-18T04:24:03.432Z,100280.13
2023-02-18T04:24:42.465Z,100277.41
2023-02-18T04:25:21.965Z,100280.66
2023-02-18T04:26:01.142Z,100277.63
2023-02-18T04:26:39.698Z,100281.47
2023-02-18T04:27:18.386Z,100271.66
2023-02-18T04:27:57.719Z,100279.03
2023-02-18T04:28:37.168Z,100278.22
2023-02-18T04:29:17.753Z,100273.28
2023-02-18T04:29:57.204Z,100270.31
2023-02-18T04:30:36.368Z,100268.38
2023-02-18T04:31:16.409Z,100270.84
2023-02-18T04:31:55.076Z,100281.47
2023-02-18T04:32:33.721Z,100272.75
2023-02-18T04:33:13.271Z,100268.09
2023-02-18T04:33:52.879Z,100269.75
2023-02-18T04:34:32.108Z,100268.91
2023-02-18T04:35:11.693Z,100269.75
2023-02-18T04:35:51.986Z,100271.94
2023-02-18T04:36:29.571Z,100275.47
2023-02-18T04:37:07.583Z,100270.31
2023-02-18T04:37:47.187Z,100269.22
2023-02-18T04:38:26.202Z,100268.09
2023-02-18T04:39:04.912Z,100278.22
2023-02-18T04:39:44.526Z,100259.63
2023-02-18T04:40:22.923Z,100265.38
2023-02-18T04:41:00.452Z,100258.00
2023-02-18T04:41:39.106Z,100256.38
2023-02-18T04:42:18.282Z,100259.09
2023-02-18T04:42:57.694Z,100262.38
2023-02-18T04:43:37.035Z,100255.00
2023-02-18T04:44:15.473Z,100261.84
2023-02-18T04:44:55.180Z,100251.72
2023-02-18T04:45:35.852Z,100247.38
2023-02-18T04:46:15.669Z,100252.03
2023-02-18T04:46:54.695Z,100249.56
2023-02-18T04:47:35.843Z,100249.28
2023-02-18T04:48:16.480Z,100244.66
2023-02-18T04:48:56.209Z,100249.28
2023-02-18T04:49:35.717Z,100246.56
2023-02-18T04:50:15.096Z,100238.38
2023-02-18T04:50:55.275Z,100236.47
2023-02-18T04:51:35.030Z,100240.00
2023-02-18T04:52:13.624Z,100236.97
2023-02-18T04:52:53.414Z,100236.16
2023-02-18T04:53:34.268Z,100238.91
2023-02-18T04:54:15.036Z,100238.66
2023-02-18T04:54:56.068Z,100241.91
2023-02-18T04:55:36.665Z,100235.66
2023-02-18T04:56:16.415Z,100233.72
2023-02-18T04:56:55.394Z,100239.19
2023-02-18T04:57:34.097Z,100234.00
2023-02-18T04:58:13.715Z,100232.63
2023-02-18T04:58:52.797Z,100237.56
2023-02-18T04:59:32.165Z,100233.72
2023-02-18T05:00:12.695Z,100236.47
2023-02-18T05:00:51.538Z,100231.81
2023-02-18T05:01:30.647Z,100232.09
2023-02-18T05:02:09.772Z,100226.63
2023-02-18T05:02:48.537Z,100228.28
2023-02-18T05:03:28.269Z,100230.72
2023-02-18T05:04:07.833Z,100220.63
2023-02-18T05:04:47.506Z,100233.72
2023-02-18T05:05:28.447Z,100225.81
2023-02-18T05:06:08.469Z,100229.91
2023-02-18T05:06:46.927Z,100233.72
2023-02-18T05:07:25.933Z,100227.75
2023-02-18T05:08:04.556Z,100226.63
2023-02-18T05:08:44.395Z,100232.38
2023-02-18T05:09:23.768Z,100226.63
2023-02-18T05:10:03.144Z,100229.38
2023-02-18T05:10:41.576Z,100216.53
2023-02-18T05:11:20.759Z,100220.91
2023-02-18T05:11:59.529Z,100216.53
2023-02-18T05:12:38.395Z,100218.97
2023-02-18T05:13:16.877Z,100217.06
2023-02-18T05:13:55.137Z,100209.75
2023-02-18T05:14:34.779Z,100211.38
2023-02-18T05:15:13.292Z,100208.63
2023-02-18T05:15:51.452Z,100215.72
2023-02-18T05:16:29.621Z,100200.16
2023-02-18T05:17:08.029Z,100211.38
2023-02-18T05:17:47.505Z,100206.44
2023-02-18T05:18:26.362Z,100207.53
2023-02-18T05:19:05.030Z,100213.53
2023-02-18T05:19:44.282Z,100208.06
2023-02-18T05:20:22.986Z,100206.97
2023-02-18T05:21:00.750Z,100208.06
2023-02-18T05:21:39.485Z,100210.28
2023-02-18T05:22:17.936Z,100211.38
2023-02-18T05:22:57.372Z,100207.00
2023-02-18T05:23:36.252Z,100208.34
2023-02-18T05:24:15.168Z,100214.91
2023-02-18T05:24:55.748Z,100210.78
2023-02-18T05:25:32.914Z,100201.25
2023-02-18T05:26:12.047Z,100203.19
2023-02-18T05:26:50.561Z,100203.19
2023-02-18T05:27:30.088Z,100204.81
2023-02-18T05:28:08.175Z,100193.09
2023-02-18T05:28:47.889Z,100201.56
2023-02-18T05:29:26.138Z,100195.00
2023-02-18T05:30:06.128Z,100205.63
2023-02-18T05:30:45.326Z,100199.34
2023-02-18T05:31:25.179Z,100200.16
2023-02-18T05:32:03.582Z,100196.63
2023-02-18T05:32:43.225Z,100191.16
2023-02-18T05:33:22.713Z,100204.00
2023-02-18T05:34:02.177Z,100199.63
2023-02-18T05:34:41.976Z,100196.34
2023-02-18T05:35:21.549Z,100189.25
2023-02-18T05:36:00.667Z,100195.22
2023-02-18T05:36:39.222Z,100198.78
2023-02-18T05:37:17.477Z,100188.97
2023-02-18T05:37:58.393Z,100191.97
2023-02-18T05:38:39.192Z,100187.63
2023-02-18T05:39:19.703Z,100184.06
2023-02-18T05:39:59.340Z,100186.81
2023-02-18T05:40:39.106Z,100188.44
2023-02-18T05:41:18.577Z,100187.63
2023-02-18T05:41:57.502Z,100184.59
2023-02-18T05:42:36.786Z,100181.63
2023-02-18T05:43:16.188Z,100173.97
2023-02-18T05:43:56.102Z,100177.53
2023-02-18T05:44:36.768Z,100180.25
2023-02-18T05:45:16.045Z,100182.69
2023-02-18T05:45:54.627Z,100175.88
2023-02-18T05:46:33.426Z,100178.63
2023-02-18T05:47:11.825Z,100183.56
2023-02-18T05:47:51.839Z,100176.19
2023-02-18T05:48:29.965Z,100178.09
2023-02-18T05:49:09.041Z,100177.81
2023-02-18T05:49:48.601Z,100168.53
2023-02-18T05:50:27.737Z,100173.44
2023-02-18T05:51:05.648Z,100167.72
2023-02-18T05:51:44.450Z,100175.06
2023-02-18T05:52:23.157Z,100162.25
2023-02-18T05:53:02.785Z,100170.44
2023-02-18T05:53:42.230Z,100148.59
2023-02-18T05:54:21.768Z,100149.41
2023-02-18T05:55:01.121Z,100152.72
2023-02-18T05:55:40.322Z,100151.03
2023-02-18T05:56:19.094Z,100142.03
2023-02-18T05:56:58.346Z,100151.03
2023-02-18T05:57:38.556Z,100153.25
2023-02-18T05:58:18.521Z,100139.31
2023-02-18T05:58:58.801Z,100146.16
2023-02-18T05:59:37.476Z,100143.97
2023-02-18T06:00:17.179Z,100143.16
2023-02-18T06:00:56.889Z,100141.53
2023-02-18T06:01:36.841Z,100145.34
2023-02-18T06:02:15.758Z,100142.03
2023-02-18T06:02:56.263Z,100137.41
2023-02-18T06:03:35.505Z,100141.22
2023-02-18T06:04:14.624Z,100143.16
2023-02-18T06:04:54.698Z,100145.88
2023-02-18T06:05:34.379Z,100136.34
2023-02-18T06:06:13.722Z,100142.63
2023-02-18T06:06:52.216Z,100142.03
2023-02-18T06:07:30.931Z,100130.03
2023-02-18T06:08:10.143Z,100130.84
2023-02-18T06:08:49.017Z,100132.75
2023-02-18T06:09:28.502Z,100131.94
2023-02-18T06:10:07.213Z,100139.31
2023-02-18T06:10:47.190Z,100137.69
2023-02-18T06:11:26.157Z,100128.41
2023-02-18T06:12:06.152Z,100137.69
2023-02-18T06:12:44.666Z,100133.84
2023-02-18T06:13:24.354Z,100121.31
2023-02-18T06:14:03.319Z,100132.22
2023-02-18T06:14:42.394Z,100132.22
2023-02-18T06:15:22.002Z,100128.97
2023-02-18T06:16:00.984Z,100124.84
2023-02-18T06:16:40.633Z,100128.13
2023-02-18T06:17:20.361Z,100135.50
2023-02-18T06:17:59.784Z,100139.31
2023-02-18T06:18:39.090Z,100119.13
2023-02-18T06:19:18.734Z,100128.41
2023-02-18T06:20:01.559Z,100120.78
2023-02-18T06:20:40.793Z,100111.50
2023-02-18T06:21:20.861Z,100133.03
2023-02-18T06:21:59.862Z,100129.50
2023-02-18T06:22:39.364Z,100122.13
2023-02-18T06:23:18.900Z,100124.84
2023-02-18T06:23:58.572Z,100110.41
2023-02-18T06:24:38.730Z,100113.66
2023-02-18T06:25:19.121Z,100108.19
2023-02-18T06:25:58.929Z,100114.47
2023-02-18T06:26:38.746Z,100109.00
2023-02-18T06:27:17.852Z,100104.94
2023-02-18T06:27:57.342Z,100109.59
2023-02-18T06:28:36.709Z,100113.13
2023-02-18T06:29:17.136Z,100117.50
2023-02-18T06:29:56.456Z,100106.56
2023-02-18T06:30:35.214Z,100104.66
2023-02-18T06:31:14.592Z,100111.50
2023-02-18T06:31:52.910Z,100101.97
2023-02-18T06:32:31.816Z,100109.06
2023-02-18T06:33:11.893Z,100113.13
2023-02-18T06:33:51.023Z,100100.59
2023-02-18T06:34:30.025Z,100111.22
2023-02-18T06:35:09.866Z,100115.84
2023-02-18T06:35:49.111Z,100108.78
2023-02-18T06:36:27.824Z,100112.03
2023-02-18T06:37:06.742Z,100108.19
2023-02-18T06:37:45.858Z,100119.41
2023-02-18T06:38:26.607Z,100106.84
2023-02-18T06:39:07.363Z,100112.84
2023-02-18T06:39:47.666Z,100098.38
2023-02-18T06:40:27.208Z,100108.47
2023-02-18T06:41:06.726Z,100112.03
2023-02-18T06:41:46.561Z,100111.22
2023-02-18T06:42:25.136Z,100111.22
2023-02-18T06:43:03.823Z,100113.41
2023-02-18T06:43:43.299Z,100112.03
2023-02-18T06:44:23.260Z,100101.94
2023-02-18T06:45:03.172Z,100108.47
2023-02-18T06:45:42.786Z,100112.03
2023-02-18T06:46:22.636Z,100110.41
2023-02-18T06:47:03.188Z,100105.75
2023-02-18T06:47:44.035Z,100103.31
2023-02-18T06:48:23.317Z,100117.19
2023-02-18T06:49:03.034Z,100118.00
2023-02-18T06:49:42.584Z,100117.50
2023-02-18T06:50:18.961Z,100115.56
2023-02-18T06:50:54.339Z,100104.41
2023-02-18T06:51:34.195Z,100108.19
2023-02-18T06:52:12.980Z,100115.84
2023-02-18T06:52:51.809Z,100113.94
2023-02-18T06:53:30.750Z,100112.84
2023-02-18T06:54:10.369Z,100123.22
2023-02-18T06:54:50.137Z,100117.78
2023-02-18T06:55:29.314Z,100118.59
2023-02-18T06:56:09.356Z,100121.59
2023-02-18T06:56:47.957Z,100109.59
2023-02-18T06:57:26.604Z,100131.13
2023-02-18T06:58:05.871Z,100123.53
2023-02-18T06:58:46.026Z,100119.97
2023-02-18T06:59:26.150Z,100124.34
2023-02-18T07:00:07.188Z,100121.31
2023-02-18T07:00:46.736Z,100123.75
2023-02-18T07:01:26.109Z,100127.59
2023-02-18T07:02:04.929Z,100119.41
2023-02-18T07:02:43.990Z,100122.13
2023-02-18T07:03:24.641Z,100125.09
2023-02-18T07:04:06.976Z,100118.28
2023-02-18T07:04:46.305Z,100119.94
2023-02-18T07:05:25.958Z,100109.81
2023-02-18T07:06:05.718Z,100114.47
2023-02-18T07:06:44.978Z,100116.38
2023-02-18T07:07:23.665Z,100115.56
2023-02-18T07:08:04.351Z,100123.75
2023-02-18T07:08:44.841Z,100115.84
2023-02-18T07:09:24.707Z,100118.88
2023-02-18T07:10:03.848Z,100128.69
2023-02-18T07:10:43.346Z,100114.53
2023-02-18T07:11:22.577Z,100125.97
2023-02-18T07:12:01.262Z,100114.47
2023-02-18T07:12:40.386Z,100120.22
2023-02-18T07:13:20.079Z,100115.28
2023-02-18T07:13:59.931Z,100121.31
2023-02-18T07:14:39.553Z,100114.22
2023-02-18T07:15:19.049Z,100110.94
2023-02-18T07:15:59.092Z,100111.22
2023-02-18T07:16:38.237Z,100111.50
2023-02-18T07:17:17.207Z,100121.31
2023-02-18T07:17:55.949Z,100102.50
2023-02-18T07:18:35.846Z,100118.59
2023-02-18T07:19:14.985Z,100110.69
2023-02-18T07:19:53.844Z,100109.88
2023-02-18T07:20:33.504Z,100114.22
2023-02-18T07:21:12.376Z,100110.13
2023-02-18T07:21:50.529Z,100113.66
2023-02-18T07:22:29.108Z,100113.66
2023-02-18T07:23:08.467Z,100105.75
2023-02-18T07:23:48.022Z,100111.44
2023-02-18T07:24:27.506Z,100120.22
2023-02-18T07:25:06.991Z,100115.28
2023-02-18T07:25:46.294Z,100111.75
2023-02-18T07:26:25.561Z,100108.47
2023-02-18T07:27:04.798Z,100104.66
2023-02-18T07:27:43.620Z,100114.75
2023-02-18T07:28:22.832Z,100122.38